TimeEST,TemperatureF,Dew PointF,Humidity,Sea Level PressureIn,VisibilityMPH,Wind Direction,Wind SpeedMPH,Gust SpeedMPH,PrecipitationIn,Events,Conditions,WindDirDegrees,DateUTC
12:53 AM,37.0,15.1,41,30.04,10.0,SSW,18.4,29.9,N/A,,Mostly Cloudy,210,2013-01-19 05:53:00
1:53 AM,39.0,17.1,41,30.03,10.0,SSW,20.7,29.9,N/A,,Scattered Clouds,200,2013-01-19 06:53:00
2:53 AM,39.9,18.0,41,30.02,10.0,SSW,20.7,33.4,N/A,,Clear,210,2013-01-19 07:53:00
3:53 AM,39.0,19.0,45,30.01,10.0,SSW,19.6,28.8,N/A,,Clear,210,2013-01-19 08:53:00
4:53 AM,39.9,19.0,43,29.99,10.0,SSW,19.6,27.6,N/A,,Clear,200,2013-01-19 09:53:00
5:53 AM,39.9,19.0,43,29.99,10.0,SSW,18.4,24.2,N/A,,Clear,210,2013-01-19 10:53:00
6:53 AM,39.9,19.9,45,29.98,10.0,SSW,17.3,24.2,N/A,,Clear,210,2013-01-19 11:53:00
7:53 AM,39.0,19.9,46,29.99,10.0,SSW,13.8,27.6,N/A,,Partly Cloudy,210,2013-01-19 12:53:00
8:53 AM,39.9,21.0,47,29.99,10.0,SSW,15.0,26.5,N/A,,Clear,210,2013-01-19 13:53:00
9:53 AM,44.1,23.0,43,30.00,10.0,SW,18.4,28.8,N/A,,Clear,220,2013-01-19 14:53:00
10:53 AM,44.1,24.1,45,30.01,10.0,SW,20.7,34.5,N/A,,Clear,220,2013-01-19 15:53:00
11:53 AM,45.0,25.0,46,29.98,10.0,SW,20.7,28.8,N/A,,Clear,230,2013-01-19 16:53:00
12:53 PM,46.9,26.1,44,29.95,10.0,SW,21.9,32.2,N/A,,Scattered Clouds,220,2013-01-19 17:53:00
1:53 PM,46.0,25.0,44,29.92,10.0,SW,16.1,28.8,N/A,,Clear,230,2013-01-19 18:53:00
2:53 PM,46.9,26.1,44,29.88,10.0,SW,11.5,-,N/A,,Clear,220,2013-01-19 19:53:00
3:53 PM,46.9,27.0,46,29.84,10.0,Variable,4.6,-,N/A,,Partly Cloudy,0,2013-01-19 20:53:00
4:53 PM,46.9,27.0,46,29.80,10.0,SSW,9.2,-,N/A,,Clear,210,2013-01-19 21:53:00
5:53 PM,48.9,26.1,41,29.77,10.0,SSW,12.7,-,N/A,,Overcast,210,2013-01-19 22:53:00
6:53 PM,48.9,23.0,36,29.76,10.0,SW,19.6,25.3,N/A,,Partly Cloudy,220,2013-01-19 23:53:00
7:53 PM,48.9,21.0,33,29.76,10.0,SW,16.1,24.2,N/A,,Overcast,230,2013-01-20 00:53:00
8:53 PM,48.9,21.9,35,29.73,10.0,SW,18.4,29.9,N/A,,Overcast,220,2013-01-20 01:53:00
9:53 PM,48.0,23.0,37,29.70,10.0,SSW,19.6,35.7,N/A,,Scattered Clouds,210,2013-01-20 02:53:00
10:53 PM,48.0,23.0,37,29.66,10.0,SSW,21.9,34.5,N/A,,Mostly Cloudy,200,2013-01-20 03:53:00
11:53 PM,48.0,25.0,41,29.63,10.0,SSW,23.0,35.7,N/A,,Overcast,210,2013-01-20 04:53:00